createdAt,value
2023-01-25T00:01:07.277Z,102378.41
2023-01-25T00:03:35.188Z,102376.89
2023-01-25T00:06:03.262Z,102369.67
2023-01-25T00:08:31.129Z,102366.38
2023-01-25T00:10:58.987Z,102369.10
2023-01-25T00:13:27.177Z,102373.48
2023-01-25T00:16:01.636Z,102372.09
2023-01-25T00:18:29.644Z,102374.77
2023-01-25T00:20:57.611Z,102372.08
2023-01-25T00:23:25.446Z,102372.70
2023-01-25T00:26:00.544Z,102370.30
2023-01-25T00:28:28.410Z,102371.63
2023-01-25T00:31:08.313Z,102370.95
2023-01-25T00:33:56.022Z,102369.46
2023-01-25T00:36:27.802Z,102362.11
2023-01-25T00:38:58.004Z,102358.89
2023-01-25T00:41:26.586Z,102358.36
2023-01-25T00:43:54.735Z,102354.98
2023-01-25T00:46:23.493Z,102355.77
2023-01-25T00:48:54.919Z,102352.08
2023-01-25T00:51:24.076Z,102350.39
2023-01-25T00:53:52.266Z,102347.63
2023-01-25T00:56:20.438Z,102348.98
2023-01-25T00:58:48.771Z,102352.77
2023-01-25T01:01:18.205Z,102351.02
2023-01-25T01:03:46.110Z,102349.16
2023-01-25T01:06:14.822Z,102346.23
2023-01-25T01:08:42.875Z,102344.39
2023-01-25T01:11:13.160Z,102342.61
2023-01-25T01:13:41.209Z,102342.91
2023-01-25T01:16:12.189Z,102339.43
2023-01-25T01:18:43.642Z,102332.61
2023-01-25T01:21:13.496Z,102335.39
2023-01-25T01:23:42.054Z,102333.71
2023-01-25T01:26:14.880Z,102328.34
2023-01-25T01:28:42.948Z,102332.10
2023-01-25T01:31:23.294Z,102330.37
2023-01-25T01:34:07.671Z,102335.35
2023-01-25T01:36:35.511Z,102327.87
2023-01-25T01:39:03.635Z,102327.29
2023-01-25T01:41:31.444Z,102322.73
2023-01-25T01:44:00.180Z,102326.08
2023-01-25T01:46:30.187Z,102327.91
2023-01-25T01:49:06.545Z,102326.65
2023-01-25T01:52:00.267Z,102324.12
2023-01-25T01:54:36.520Z,102325.18
2023-01-25T01:57:12.295Z,102318.35
2023-01-25T01:59:56.303Z,102322.86
2023-01-25T02:02:26.212Z,102324.11
2023-01-25T02:04:59.706Z,102320.52
2023-01-25T02:07:34.997Z,102322.09
2023-01-25T02:10:11.414Z,102319.52
2023-01-25T02:12:41.435Z,102322.66
2023-01-25T02:15:10.691Z,102322.95
2023-01-25T02:17:41.536Z,102320.93
2023-01-25T02:20:45.542Z,102317.55
2023-01-25T02:23:22.088Z,102314.62
2023-01-25T02:25:50.499Z,102308.92
2023-01-25T02:28:20.680Z,102301.27
2023-01-25T02:30:49.027Z,102302.36
2023-01-25T02:33:17.315Z,102298.60
2023-01-25T02:35:53.928Z,102298.02
2023-01-25T02:38:22.286Z,102299.29
2023-01-25T02:40:57.884Z,102295.70
2023-01-25T02:43:31.080Z,102293.61
2023-01-25T02:46:22.726Z,102290.33
2023-01-25T02:48:50.662Z,102286.98
2023-01-25T02:51:18.683Z,102282.20
2023-01-25T02:53:47.731Z,102279.10
2023-01-25T02:56:16.830Z,102279.50
2023-01-25T02:58:45.541Z,102279.09
2023-01-25T03:01:14.524Z,102281.67
2023-01-25T03:03:43.464Z,102276.13
2023-01-25T03:06:12.020Z,102276.83
2023-01-25T03:08:40.706Z,102280.44
2023-01-25T03:11:08.998Z,102279.71
2023-01-25T03:13:37.857Z,102277.42
2023-01-25T03:16:09.091Z,102279.48
2023-01-25T03:18:38.237Z,102273.75
2023-01-25T03:21:07.192Z,102269.67
2023-01-25T03:23:35.839Z,102266.03
2023-01-25T03:26:13.318Z,102261.76
2023-01-25T03:28:51.529Z,102257.52
2023-01-25T03:31:20.570Z,102247.00
2023-01-25T03:33:49.883Z,102239.73
2023-01-25T03:36:19.280Z,102236.80
2023-01-25T03:38:47.250Z,102237.23
2023-01-25T03:41:15.491Z,102236.55
2023-01-25T03:43:43.525Z,102234.16
2023-01-25T03:46:11.866Z,102231.45
2023-01-25T03:48:40.013Z,102233.06
2023-01-25T03:51:08.038Z,102235.79
2023-01-25T03:53:37.211Z,102232.33
2023-01-25T03:56:12.117Z,102226.35
2023-01-25T03:58:40.956Z,102217.84
2023-01-25T04:01:09.398Z,102212.86
2023-01-25T04:03:37.551Z,102214.98
2023-01-25T04:06:06.611Z,102211.98
2023-01-25T04:08:36.007Z,102215.02
2023-01-25T04:11:09.961Z,102212.67
2023-01-25T04:13:40.028Z,102211.50
2023-01-25T04:16:12.371Z,102213.73
2023-01-25T04:19:09.813Z,102211.17
2023-01-25T04:21:38.056Z,102217.52
2023-01-25T04:24:06.875Z,102236.35
2023-01-25T04:26:36.687Z,102226.63
2023-01-25T04:29:04.627Z,102209.80
2023-01-25T04:31:33.948Z,102221.15
2023-01-25T04:34:02.336Z,102217.27
2023-01-25T04:36:30.362Z,102225.29
2023-01-25T04:38:59.158Z,102211.80
2023-01-25T04:41:29.387Z,102207.21
2023-01-25T04:43:58.816Z,102206.36
2023-01-25T04:46:26.907Z,102204.00
2023-01-25T04:48:54.959Z,102202.77
2023-01-25T04:51:22.873Z,102197.58
2023-01-25T04:53:50.899Z,102204.41
2023-01-25T04:56:18.964Z,102200.14
2023-01-25T04:58:53.971Z,102195.41
2023-01-25T05:01:22.899Z,102194.73
2023-01-25T05:03:51.373Z,102196.21
2023-01-25T05:06:38.689Z,102192.65
2023-01-25T05:09:07.163Z,102196.24
2023-01-25T05:11:36.016Z,102196.53
2023-01-25T05:14:08.465Z,102195.13
2023-01-25T05:16:36.768Z,102186.83
2023-01-25T05:19:04.931Z,102180.45
2023-01-25T05:22:00.121Z,102182.98
2023-01-25T05:24:36.198Z,102187.48
2023-01-25T05:27:08.107Z,102187.13
2023-01-25T05:30:02.101Z,102179.10
2023-01-25T05:32:50.292Z,102177.50
2023-01-25T05:35:18.716Z,102181.27
2023-01-25T05:37:46.872Z,102181.59
2023-01-25T05:40:19.222Z,102184.16
2023-01-25T05:42:54.306Z,102177.98
2023-01-25T05:45:22.360Z,102178.17
2023-01-25T05:47:57.582Z,102172.88
2023-01-25T05:50:27.104Z,102175.32
2023-01-25T05:53:04.696Z,102175.27
2023-01-25T05:55:35.713Z,102179.41
2023-01-25T05:58:05.896Z,102177.77
2023-01-25T06:00:33.754Z,102177.63
2023-01-25T06:03:05.376Z,102180.13
2023-01-25T06:05:36.836Z,102182.33
2023-01-25T06:08:04.897Z,102180.92
2023-01-25T06:10:42.072Z,102181.66
2023-01-25T06:13:10.024Z,102179.43
2023-01-25T06:15:37.906Z,102175.54
2023-01-25T06:18:45.175Z,102175.86
2023-01-25T06:21:22.692Z,102173.60
2023-01-25T06:23:51.003Z,102168.46
2023-01-25T06:26:18.963Z,102170.17
2023-01-25T06:28:47.084Z,102166.52
2023-01-25T06:31:17.334Z,102163.60
2023-01-25T06:33:49.958Z,102162.40
2023-01-25T06:36:20.940Z,102154.41
2023-01-25T06:38:50.848Z,102152.84
2023-01-25T06:41:19.903Z,102150.20
2023-01-25T06:43:51.239Z,102144.55
2023-01-25T06:46:20.530Z,102142.10
2023-01-25T06:48:48.603Z,102146.05
2023-01-25T06:51:18.273Z,102158.02
2023-01-25T06:53:47.786Z,102164.65
2023-01-25T06:56:21.947Z,102168.27
2023-01-25T06:58:50.737Z,102162.77
2023-01-25T07:01:21.507Z,102164.99
2023-01-25T07:03:51.144Z,102163.61
2023-01-25T07:06:19.750Z,102158.81
2023-01-25T07:08:48.309Z,102152.71
2023-01-25T07:11:19.062Z,102150.43
2023-01-25T07:13:47.934Z,102148.44
2023-01-25T07:16:20.530Z,102146.61
2023-01-25T07:18:48.370Z,102148.06
2023-01-25T07:21:20.529Z,102148.27
2023-01-25T07:23:49.708Z,102138.84
2023-01-25T07:26:25.485Z,102131.70
2023-01-25T07:28:53.968Z,102128.77
2023-01-25T07:31:21.886Z,102124.20
2023-01-25T07:33:51.732Z,102124.34
2023-01-25T07:36:20.400Z,102121.96
2023-01-25T07:38:48.917Z,102119.73
2023-01-25T07:41:16.741Z,102120.13
2023-01-25T07:43:44.774Z,102120.25
2023-01-25T07:46:14.360Z,102122.13
2023-01-25T07:48:50.853Z,102123.13
2023-01-25T07:51:27.200Z,102120.47
2023-01-25T07:54:01.086Z,102115.91
2023-01-25T07:56:31.937Z,102115.52
2023-01-25T07:59:02.802Z,102115.91
2023-01-25T08:01:34.554Z,102114.38
2023-01-25T08:04:04.792Z,102117.08
2023-01-25T08:06:36.327Z,102118.51
2023-01-25T08:09:08.614Z,102118.64
2023-01-25T08:11:36.447Z,102119.90
2023-01-25T08:14:04.611Z,102122.88
2023-01-25T08:16:33.605Z,102120.57
2023-01-25T08:19:03.404Z,102116.02
2023-01-25T08:21:34.154Z,102111.33
2023-01-25T08:24:05.519Z,102113.70
2023-01-25T08:26:35.016Z,102115.15
2023-01-25T08:29:03.978Z,102112.75
2023-01-25T08:31:34.179Z,102108.34
2023-01-25T08:34:02.311Z,102105.28
2023-01-25T08:36:30.573Z,102099.34
2023-01-25T08:39:07.012Z,102095.78
2023-01-25T08:41:35.627Z,102091.34
2023-01-25T08:44:05.592Z,102086.23
2023-01-25T08:46:34.659Z,102086.84
2023-01-25T08:49:03.408Z,102083.72
2023-01-25T08:51:33.478Z,102082.15
2023-01-25T08:54:06.334Z,102085.54
2023-01-25T08:56:37.872Z,102079.02
2023-01-25T08:59:07.415Z,102077.19
2023-01-25T09:01:35.676Z,102076.23
2023-01-25T09:04:03.964Z,102078.54
2023-01-25T09:06:33.092Z,102075.22
2023-01-25T09:09:00.994Z,102071.73
2023-01-25T09:11:29.111Z,102070.98
2023-01-25T09:13:57.029Z,102069.94
2023-01-25T09:16:29.442Z,102073.55
2023-01-25T09:19:03.357Z,102076.38
2023-01-25T09:21:32.925Z,102073.25
2023-01-25T09:24:08.782Z,102073.29
2023-01-25T09:26:40.873Z,102076.25
2023-01-25T09:29:12.863Z,102077.05
2023-01-25T09:31:43.724Z,102073.23
2023-01-25T09:34:38.741Z,102066.55
2023-01-25T09:37:06.614Z,102067.44
2023-01-25T09:39:34.556Z,102060.54
2023-01-25T09:42:21.545Z,102058.92
2023-01-25T09:45:12.203Z,102049.02
2023-01-25T09:47:44.355Z,102043.23
2023-01-25T09:50:34.755Z,102039.55
2023-01-25T09:53:21.880Z,102034.23
2023-01-25T09:55:55.791Z,102029.69
2023-01-25T09:58:33.388Z,102026.83
2023-01-25T10:01:15.685Z,102021.98
2023-01-25T10:03:53.344Z,102021.71
2023-01-25T10:06:23.775Z,102021.17
2023-01-25T10:09:00.727Z,102016.38
2023-01-25T10:11:31.732Z,102016.64
2023-01-25T10:14:00.576Z,102007.39
2023-01-25T10:16:36.982Z,102006.59
2023-01-25T10:19:17.222Z,102003.48
2023-01-25T10:22:19.819Z,101994.92
2023-01-25T10:25:21.338Z,101985.41
2023-01-25T10:28:14.640Z,101978.48
2023-01-25T10:30:56.090Z,101979.22
2023-01-25T10:33:24.459Z,101977.07
2023-01-25T10:35:52.370Z,101971.06
2023-01-25T10:38:28.267Z,101966.63
2023-01-25T10:41:14.246Z,101968.84
2023-01-25T10:43:42.066Z,101962.68
2023-01-25T10:46:28.789Z,101952.80
2023-01-25T10:48:57.858Z,101954.47
2023-01-25T10:51:35.521Z,101954.41
2023-01-25T10:54:06.325Z,101953.16
2023-01-25T10:56:39.378Z,101949.98
2023-01-25T10:59:28.512Z,101944.25
2023-01-25T11:01:58.324Z,101944.25
2023-01-25T11:04:36.965Z,101942.88
2023-01-25T11:07:06.387Z,101938.63
2023-01-25T11:09:39.201Z,101939.39
2023-01-25T11:12:20.987Z,101932.88
2023-01-25T11:14:50.348Z,101931.61
2023-01-25T11:17:26.423Z,101926.54
2023-01-25T11:20:23.500Z,101919.70
2023-01-25T11:22:56.576Z,101909.67
2023-01-25T11:25:28.372Z,101905.91
2023-01-25T11:28:23.107Z,101903.89
2023-01-25T11:30:53.277Z,101897.98
2023-01-25T11:33:22.670Z,101897.52
2023-01-25T11:36:33.325Z,101890.55
2023-01-25T11:39:22.201Z,101888.04
2023-01-25T11:42:14.883Z,101887.62
2023-01-25T11:45:14.138Z,101887.26
2023-01-25T11:47:46.366Z,101887.80
2023-01-25T11:50:39.180Z,101889.50
2023-01-25T11:53:33.501Z,101891.03
2023-01-25T11:56:13.642Z,101887.67
2023-01-25T11:58:50.753Z,101887.41
2023-01-25T12:01:33.747Z,101883.13
2023-01-25T12:04:27.651Z,101880.05
2023-01-25T12:07:10.584Z,101866.20
2023-01-25T12:09:47.164Z,101863.15
2023-01-25T12:12:49.606Z,101866.06
2023-01-25T12:15:46.121Z,101852.95
2023-01-25T12:18:32.814Z,101844.78
2023-01-25T12:21:00.539Z,101842.17
2023-01-25T12:23:31.346Z,101843.23
2023-01-25T12:26:21.029Z,101839.83
2023-01-25T12:29:38.106Z,101835.31
2023-01-25T12:32:31.255Z,101831.27
2023-01-25T12:35:22.540Z,101822.41
2023-01-25T12:37:56.201Z,101817.10
2023-01-25T12:40:57.087Z,101815.95
2023-01-25T12:43:33.082Z,101811.69
2023-01-25T12:46:11.056Z,101812.45
2023-01-25T12:48:44.086Z,101810.89
2023-01-25T12:51:12.454Z,101807.31
2023-01-25T12:53:44.163Z,101804.84
2023-01-25T12:56:29.146Z,101804.23
2023-01-25T12:59:04.008Z,101796.81
2023-01-25T13:01:54.510Z,101798.38
2023-01-25T13:04:55.075Z,101799.10
2023-01-25T13:07:27.636Z,101801.59
2023-01-25T13:10:03.213Z,101801.73
2023-01-25T13:12:54.823Z,101798.16
2023-01-25T13:15:41.231Z,101794.73
2023-01-25T13:18:27.842Z,101786.52
2023-01-25T13:20:58.252Z,101786.52
2023-01-25T13:23:33.988Z,101785.33
2023-01-25T13:26:29.850Z,101787.09
2023-01-25T13:29:01.506Z,101785.37
2023-01-25T13:31:51.032Z,101786.36
2023-01-25T13:34:39.550Z,101773.67
2023-01-25T13:37:25.794Z,101769.30
2023-01-25T13:40:13.684Z,101763.48
2023-01-25T13:42:42.794Z,101765.90
2023-01-25T13:45:21.462Z,101760.59
2023-01-25T13:48:14.436Z,101757.92
2023-01-25T13:50:51.616Z,101751.77
2023-01-25T13:53:23.024Z,101754.25
2023-01-25T13:55:56.931Z,101755.85
2023-01-25T13:58:30.115Z,101756.83
2023-01-25T14:01:06.662Z,101753.25
2023-01-25T14:03:46.843Z,101751.31
2023-01-25T14:06:19.094Z,101739.77
2023-01-25T14:08:49.167Z,101737.45
2023-01-25T14:11:26.963Z,101736.83
2023-01-25T14:14:18.536Z,101728.76
2023-01-25T14:16:46.902Z,101726.23
2023-01-25T14:19:23.494Z,101724.15
2023-01-25T14:22:17.810Z,101720.32
2023-01-25T14:24:46.718Z,101714.38
2023-01-25T14:27:16.842Z,101712.88
2023-01-25T14:29:49.194Z,101713.38
2023-01-25T14:32:21.531Z,101712.41
2023-01-25T14:34:49.667Z,101709.80
2023-01-25T14:37:22.346Z,101709.48
2023-01-25T14:39:52.172Z,101701.23
2023-01-25T14:42:22.883Z,101694.33
2023-01-25T14:44:50.843Z,101693.77
2023-01-25T14:47:32.661Z,101691.46
2023-01-25T14:50:34.904Z,101685.25
2023-01-25T14:53:19.911Z,101678.48
2023-01-25T14:55:49.985Z,101675.66
2023-01-25T14:58:21.393Z,101672.47
2023-01-25T15:01:01.827Z,101668.52
2023-01-25T15:03:31.491Z,101666.09
2023-01-25T15:06:04.575Z,101663.88
2023-01-25T15:08:39.242Z,101661.66
2023-01-25T15:11:48.903Z,101658.61
2023-01-25T15:14:22.345Z,101658.20
2023-01-25T15:16:50.286Z,101657.70
2023-01-25T15:19:30.656Z,101656.13
2023-01-25T15:22:00.641Z,101651.20
2023-01-25T15:24:28.871Z,101649.81
2023-01-25T15:26:56.908Z,101646.93
2023-01-25T15:29:28.937Z,101641.11
2023-01-25T15:31:56.871Z,101636.79
2023-01-25T15:34:32.618Z,101645.10
2023-01-25T15:37:00.437Z,101643.98
2023-01-25T15:39:28.996Z,101640.13
2023-01-25T15:41:57.040Z,101638.44
2023-01-25T15:44:24.955Z,101637.18
2023-01-25T15:46:53.804Z,101634.60
2023-01-25T15:49:32.413Z,101630.46
2023-01-25T15:52:00.260Z,101623.80
2023-01-25T15:54:28.183Z,101625.79
2023-01-25T15:56:59.102Z,101617.05
2023-01-25T15:59:27.661Z,101620.14
2023-01-25T16:01:55.603Z,101618.75
2023-01-25T16:04:25.315Z,101612.95
2023-01-25T16:06:55.099Z,101612.13
2023-01-25T16:09:31.156Z,101606.11
2023-01-25T16:12:01.535Z,101608.23
2023-01-25T16:14:31.546Z,101604.13
2023-01-25T16:17:03.092Z,101602.27
2023-01-25T16:19:31.807Z,101601.55
2023-01-25T16:21:59.903Z,101593.83
2023-01-25T16:24:28.063Z,101594.13
2023-01-25T16:26:58.162Z,101589.69
2023-01-25T16:29:27.000Z,101580.60
2023-01-25T16:31:55.373Z,101577.98
2023-01-25T16:34:23.497Z,101577.11
2023-01-25T16:36:51.431Z,101578.09
2023-01-25T16:39:22.338Z,101573.30
2023-01-25T16:41:50.479Z,101568.00
2023-01-25T16:44:18.323Z,101569.52
2023-01-25T16:46:48.398Z,101568.19
2023-01-25T16:49:20.670Z,101557.29
2023-01-25T16:51:50.356Z,101549.98
2023-01-25T16:54:22.898Z,101548.13
2023-01-25T16:56:52.487Z,101550.21
2023-01-25T16:59:23.011Z,101556.23
2023-01-25T17:01:52.316Z,101557.31
2023-01-25T17:04:20.756Z,101551.88
2023-01-25T17:06:51.075Z,101551.05
2023-01-25T17:09:25.417Z,101544.61
2023-01-25T17:11:55.551Z,101543.03
2023-01-25T17:14:23.619Z,101544.59
2023-01-25T17:16:55.604Z,101538.30
2023-01-25T17:19:23.793Z,101531.96
2023-01-25T17:21:51.676Z,101523.58
2023-01-25T17:24:21.929Z,101512.80
2023-01-25T17:26:51.214Z,101511.77
2023-01-25T17:29:19.095Z,101511.08
2023-01-25T17:31:46.999Z,101515.30
2023-01-25T17:34:20.035Z,101512.09
2023-01-25T17:36:49.632Z,101505.60
2023-01-25T17:39:19.842Z,101503.15
2023-01-25T17:41:49.602Z,101507.51
2023-01-25T17:44:22.732Z,101505.48
2023-01-25T17:46:51.239Z,101507.43
2023-01-25T17:49:19.489Z,101506.52
2023-01-25T17:51:47.578Z,101503.23
2023-01-25T17:54:15.561Z,101501.16
2023-01-25T17:56:43.819Z,101498.92
2023-01-25T17:59:19.167Z,101496.55
2023-01-25T18:01:48.373Z,101492.64
2023-01-25T18:04:17.750Z,101491.59
2023-01-25T18:06:45.820Z,101494.42
2023-01-25T18:09:13.768Z,101498.23
2023-01-25T18:11:41.893Z,101494.77
2023-01-25T18:14:17.063Z,101490.46
2023-01-25T18:16:45.172Z,101486.40
2023-01-25T18:19:13.537Z,101486.17
2023-01-25T18:21:42.509Z,101480.44
2023-01-25T18:24:34.159Z,101482.30
2023-01-25T18:27:23.638Z,101485.00
2023-01-25T18:30:16.721Z,101483.50
2023-01-25T18:32:44.575Z,101479.27
2023-01-25T18:35:12.673Z,101481.77
2023-01-25T18:37:43.809Z,101483.07
2023-01-25T18:40:14.117Z,101480.81
2023-01-25T18:42:42.269Z,101479.33
2023-01-25T18:45:10.808Z,101476.66
2023-01-25T18:47:39.256Z,101477.55
2023-01-25T18:50:13.968Z,101478.23
2023-01-25T18:52:42.951Z,101473.11
2023-01-25T18:55:15.173Z,101469.95
2023-01-25T18:57:46.141Z,101470.77
2023-01-25T19:00:16.717Z,101467.75
2023-01-25T19:02:44.590Z,101469.80
2023-01-25T19:05:14.468Z,101467.92
2023-01-25T19:07:43.469Z,101465.02
2023-01-25T19:10:11.780Z,101463.11
2023-01-25T19:12:40.110Z,101462.73
2023-01-25T19:15:08.939Z,101457.98
2023-01-25T19:17:38.304Z,101458.02
2023-01-25T19:20:06.807Z,101457.60
2023-01-25T19:22:34.668Z,101459.23
2023-01-25T19:25:02.515Z,101453.34
2023-01-25T19:27:30.550Z,101450.96
2023-01-25T19:29:58.390Z,101450.10
2023-01-25T19:32:26.197Z,101444.98
2023-01-25T19:34:54.092Z,101447.00
2023-01-25T19:37:21.959Z,101444.30
2023-01-25T19:39:51.093Z,101438.61
2023-01-25T19:42:19.006Z,101431.66
2023-01-25T19:44:48.915Z,101429.44
2023-01-25T19:47:16.806Z,101427.59
2023-01-25T19:49:44.700Z,101423.35
2023-01-25T19:52:12.568Z,101424.21
2023-01-25T19:54:40.698Z,101419.59
2023-01-25T19:57:09.234Z,101420.70
2023-01-25T19:59:37.157Z,101421.30
2023-01-25T20:02:05.360Z,101419.27
2023-01-25T20:04:33.191Z,101413.83
2023-01-25T20:07:01.015Z,101412.16
2023-01-25T20:09:28.926Z,101406.20
2023-01-25T20:11:58.410Z,101406.22
2023-01-25T20:14:27.015Z,101403.84
2023-01-25T20:16:54.873Z,101399.23
2023-01-25T20:19:22.838Z,101390.88
2023-01-25T20:21:51.048Z,101388.36
2023-01-25T20:24:19.005Z,101383.08
2023-01-25T20:26:47.568Z,101376.75
2023-01-25T20:29:15.653Z,101370.44
2023-01-25T20:31:45.745Z,101368.88
2023-01-25T20:34:22.336Z,101368.02
2023-01-25T20:36:51.314Z,101367.77
2023-01-25T20:39:20.991Z,101367.90
2023-01-25T20:41:53.554Z,101364.16
2023-01-25T20:44:21.780Z,101359.09
2023-01-25T20:46:52.185Z,101359.40
2023-01-25T20:49:22.530Z,101363.20
2023-01-25T20:51:50.350Z,101367.61
2023-01-25T20:54:18.364Z,101363.12
2023-01-25T20:56:50.667Z,101356.84
2023-01-25T20:59:19.518Z,101355.02
2023-01-25T21:01:47.632Z,101356.25
2023-01-25T21:04:15.715Z,101353.05
2023-01-25T21:06:43.648Z,101353.04
2023-01-25T21:09:12.109Z,101350.30
2023-01-25T21:11:39.965Z,101348.85
2023-01-25T21:14:07.953Z,101348.96
2023-01-25T21:16:35.873Z,101341.95
2023-01-25T21:19:06.494Z,101343.33
2023-01-25T21:21:35.108Z,101346.30
2023-01-25T21:24:05.361Z,101343.20
2023-01-25T21:26:35.286Z,101338.41
2023-01-25T21:29:04.532Z,101335.54
2023-01-25T21:31:38.904Z,101334.90
2023-01-25T21:34:06.956Z,101338.71
2023-01-25T21:36:34.923Z,101341.78
2023-01-25T21:39:04.107Z,101338.50
2023-01-25T21:41:33.881Z,101332.23
2023-01-25T21:44:21.755Z,101327.42
2023-01-25T21:47:16.248Z,101333.83
2023-01-25T21:49:56.435Z,101324.48
2023-01-25T21:52:24.556Z,101319.66
2023-01-25T21:54:52.810Z,101316.46
2023-01-25T21:57:20.744Z,101311.86
2023-01-25T21:59:49.027Z,101313.59
2023-01-25T22:02:17.144Z,101317.63
2023-01-25T22:04:45.353Z,101319.95
2023-01-25T22:07:13.156Z,101325.02
2023-01-25T22:09:41.066Z,101321.25
2023-01-25T22:12:09.415Z,101318.05
2023-01-25T22:14:37.272Z,101322.13
2023-01-25T22:17:05.300Z,101325.73
2023-01-25T22:19:33.579Z,101324.89
2023-01-25T22:22:01.751Z,101318.46
2023-01-25T22:24:29.614Z,101315.94
2023-01-25T22:27:03.353Z,101314.64
2023-01-25T22:29:33.148Z,101308.77
2023-01-25T22:32:02.443Z,101305.77
2023-01-25T22:34:30.453Z,101300.00
2023-01-25T22:36:58.375Z,101296.58
2023-01-25T22:39:27.307Z,101295.66
2023-01-25T22:41:56.500Z,101294.33
2023-01-25T22:44:24.428Z,101292.30
2023-01-25T22:46:53.925Z,101288.91
2023-01-25T22:49:21.848Z,101288.55
2023-01-25T22:51:49.782Z,101282.39
2023-01-25T22:54:17.922Z,101277.93
2023-01-25T22:56:45.803Z,101279.75
2023-01-25T22:59:20.033Z,101274.77
2023-01-25T23:01:48.032Z,101270.48
2023-01-25T23:04:15.965Z,101265.13
2023-01-25T23:06:43.909Z,101262.48
2023-01-25T23:09:11.911Z,101261.07
2023-01-25T23:11:39.799Z,101255.48
2023-01-25T23:14:30.609Z,101251.91
2023-01-25T23:17:17.259Z,101249.73
2023-01-25T23:19:45.676Z,101249.55
2023-01-25T23:22:13.627Z,101243.63
2023-01-25T23:24:41.580Z,101236.99
2023-01-25T23:27:09.475Z,101234.61
2023-01-25T23:29:37.621Z,101234.79
2023-01-25T23:32:05.969Z,101232.40
2023-01-25T23:34:37.169Z,101229.86
2023-01-25T23:37:05.125Z,101222.52
2023-01-25T23:39:33.234Z,101215.33
2023-01-25T23:42:01.267Z,101212.38
2023-01-25T23:44:29.425Z,101207.40
2023-01-25T23:46:57.499Z,101204.34
2023-01-25T23:49:25.382Z,101203.48
2023-01-25T23:51:53.208Z,101203.14
2023-01-25T23:54:21.111Z,101197.33
2023-01-25T23:56:48.962Z,101197.05
2023-01-25T23:59:16.785Z,101196.39
